Time;durP1;ratioP1;P1;durP2;ratioP2;P2;SDS_P1;SDS_P2;PMS_P1;PMS_P2;Temp;Humidity;BMP_temperature;BMP_pressure;BME280_temperature;BME280_humidity;BME280_pressure;Samples;Min_cycle;Max_cycle;Signal;HPM_P1;HPM_P2
2021/08/23 00:00:42;;;;;;;1999.90;999.90;;;17.30;99.90;;;;;;5053539;28;20375;-79
2021/08/23 00:03:11;;;;;;;1999.90;999.90;;;17.30;99.90;;;;;;5053075;28;20794;-79
2021/08/23 00:05:37;;;;;;;1999.90;999.90;;;17.40;99.90;;;;;;5053324;28;20173;-79
2021/08/23 00:08:05;;;;;;;1999.90;999.90;;;17.30;99.90;;;;;;5053125;28;20952;-79
2021/08/23 00:10:31;;;;;;;1999.90;999.90;;;17.30;99.90;;;;;;5053196;28;20164;-79
2021/08/23 00:13:00;;;;;;;1999.90;999.90;;;17.40;99.90;;;;;;5053199;28;20453;-79
2021/08/23 00:15:29;;;;;;;1999.90;999.90;;;17.30;99.90;;;;;;5053153;28;20379;-79
2021/08/23 00:17:54;;;;;;;1999.90;999.90;;;17.20;99.90;;;;;;5053039;28;20422;-79
2021/08/23 00:20:54;;;;;;;1999.90;999.90;;;17.10;99.90;;;;;;5053504;28;20379;-79
2021/08/23 00:23:35;;;;;;;1999.90;999.90;;;17.00;99.90;;;;;;5052604;28;20268;-79
2021/08/23 00:26:07;;;;;;;1999.90;999.90;;;17.00;99.90;;;;;;5053252;28;20960;-79
2021/08/23 00:29:11;;;;;;;1999.90;999.90;;;16.90;99.90;;;;;;5053294;28;20419;-79
2021/08/23 00:31:44;;;;;;;1999.90;999.90;;;17.00;99.90;;;;;;5002335;28;20532;-79
2021/08/23 00:34:10;;;;;;;1999.90;999.90;;;16.90;99.90;;;;;;5053306;28;20871;-79
2021/08/23 00:36:44;;;;;;;1999.90;999.90;;;16.80;99.90;;;;;;5053344;28;20482;-79
2021/08/23 00:39:26;;;;;;;1999.90;999.90;;;16.90;99.90;;;;;;5052975;28;20375;-79
2021/08/23 00:41:52;;;;;;;1999.90;999.90;;;17.00;99.90;;;;;;5035038;28;20407;-79
2021/08/23 00:45:16;;;;;;;1999.90;999.90;;;16.90;99.90;;;;;;5053158;28;20399;-79
2021/08/23 00:47:41;;;;;;;1999.90;999.90;;;16.80;99.90;;;;;;4999348;28;20193;-79
2021/08/23 00:50:10;;;;;;;1999.90;999.90;;;16.70;99.90;;;;;;5054521;28;20502;-79
2021/08/23 00:53:06;;;;;;;1999.90;999.90;;;16.70;99.90;;;;;;5056576;28;20699;-79
2021/08/23 00:55:47;;;;;;;1999.90;999.90;;;16.70;99.90;;;;;;5056723;28;20383;-79
2021/08/23 00:58:31;;;;;;;1999.90;999.90;;;16.70;99.90;;;;;;5056360;28;20491;-79
2021/08/23 01:01:45;;;;;;;1999.90;999.90;;;16.70;99.90;;;;;;5056596;28;20475;-79
2021/08/23 01:04:24;;;;;;;1999.90;999.90;;;16.60;99.90;;;;;;4997683;28;20414;-79
2021/08/23 01:07:00;;;;;;;1999.90;999.90;;;16.60;99.90;;;;;;5037470;28;20428;-78
2021/08/23 01:10:06;;;;;;;1999.90;999.90;;;16.50;99.90;;;;;;5038436;28;20403;-79
2021/08/23 01:15:55;;;;;;;1999.90;999.90;;;16.50;99.90;;;;;;5055819;28;20403;-79
2021/08/23 01:18:42;;;;;;;1999.90;999.90;;;16.50;99.90;;;;;;5055966;28;20415;-79
2021/08/23 01:21:14;;;;;;;1999.90;999.90;;;16.70;99.90;;;;;;4989195;28;20407;-79
2021/08/23 01:24:19;;;;;;;1999.90;999.90;;;16.70;99.90;;;;;;5055960;28;20376;-79
2021/08/23 01:27:12;;;;;;;1999.90;999.90;;;16.70;99.90;;;;;;5055751;28;20423;-79
2021/08/23 01:30:02;;;;;;;1999.90;999.90;;;16.80;99.90;;;;;;5055776;28;20890;-79
2021/08/23 01:32:40;;;;;;;1999.90;999.90;;;16.90;99.90;;;;;;5037897;28;20477;-79
2021/08/23 01:35:22;;;;;;;1999.90;999.90;;;16.80;99.90;;;;;;5056359;28;20944;-79
2021/08/23 01:38:01;;;;;;;1999.90;999.90;;;16.80;99.90;;;;;;5037973;28;20427;-79
2021/08/23 01:40:40;;;;;;;1999.90;999.90;;;16.80;99.90;;;;;;5028726;28;20453;-78
2021/08/23 01:43:37;;;;;;;1999.90;999.90;;;16.90;99.90;;;;;;5037335;28;20411;-79
2021/08/23 01:46:06;;;;;;;1999.90;999.90;;;16.80;99.90;;;;;;5055915;28;20415;-79
2021/08/23 01:48:37;;;;;;;1999.90;999.90;;;16.80;99.90;;;;;;5055391;28;20472;-79
2021/08/23 01:51:48;;;;;;;1999.90;999.90;;;16.70;99.90;;;;;;5055678;28;20440;-79
2021/08/23 01:54:22;;;;;;;1999.90;999.90;;;16.60;99.90;;;;;;4974498;28;20470;-79
2021/08/23 01:59:36;;;;;;;1999.90;999.90;;;16.50;99.90;;;;;;5053782;28;20462;-79
2021/08/23 02:02:04;;;;;;;1999.90;999.90;;;16.50;99.90;;;;;;5036742;28;20446;-79
2021/08/23 02:04:36;;;;;;;1999.90;999.90;;;16.60;99.90;;;;;;5055277;28;20399;-79
2021/08/23 02:13:31;;;;;;;1999.90;999.90;;;16.50;99.90;;;;;;4938917;29;20556;-79
2021/08/23 02:15:57;;;;;;;1999.90;999.90;;;16.50;99.90;;;;;;5055137;28;20898;-79
2021/08/23 02:18:23;;;;;;;1999.90;999.90;;;16.40;99.90;;;;;;5054892;28;20419;-80
2021/08/23 02:21:38;;;;;;;1999.90;999.90;;;16.40;99.90;;;;;;5037037;28;20413;-79
2021/08/23 02:24:09;;;;;;;1999.90;999.90;;;16.30;99.90;;;;;;5036666;28;20188;-79
2021/08/23 02:27:23;;;;;;;1999.90;999.90;;;16.30;99.90;;;;;;5037547;28;20395;-79
2021/08/23 02:29:49;;;;;;;1999.90;999.90;;;16.30;99.90;;;;;;5032527;28;21037;-79
2021/08/23 02:32:15;;;;;;;1999.90;999.90;;;16.40;99.90;;;;;;5054798;28;20540;-79
2021/08/23 02:35:35;;;;;;;1999.90;999.90;;;16.40;99.90;;;;;;5036831;28;20175;-80
2021/08/23 02:38:57;;;;;;;1999.90;999.90;;;16.50;99.90;;;;;;5054677;28;20206;-79
2021/08/23 02:44:47;;;;;;;1999.90;999.90;;;16.50;99.90;;;;;;4964218;28;20429;-79
2021/08/23 02:47:42;;;;;;;1999.90;999.90;;;16.60;99.90;;;;;;5054618;28;20487;-80
2021/08/23 02:50:10;;;;;;;1999.90;999.90;;;16.50;99.90;;;;;;5045924;28;20577;-79
2021/08/23 02:52:37;;;;;;;1999.90;999.90;;;16.60;99.90;;;;;;5036456;28;20469;-79
2021/08/23 02:55:36;;;;;;;;;;;;;;;;;;;;;
2021/08/23 02:58:14;;;;;;;1999.90;999.90;;;16.60;99.90;;;;;;5054117;28;20817;-79
2021/08/23 03:01:03;;;;;;;1999.90;999.90;;;16.50;99.90;;;;;;5036447;28;20457;-79
2021/08/23 03:03:38;;;;;;;1999.90;999.90;;;16.50;99.90;;;;;;5054678;28;20411;-79
2021/08/23 03:06:22;;;;;;;1999.90;999.90;;;16.50;99.90;;;;;;5054242;28;20813;-79
2021/08/23 03:08:54;;;;;;;1999.90;999.90;;;16.50;99.90;;;;;;5054533;28;20754;-79
2021/08/23 03:12:15;;;;;;;1999.90;999.90;;;16.40;99.90;;;;;;5035926;28;20414;-80
2021/08/23 03:14:51;;;;;;;1999.90;999.90;;;16.40;99.90;;;;;;4933028;29;20512;-79
2021/08/23 03:17:28;;;;;;;1999.90;999.90;;;16.30;99.90;;;;;;4953924;28;20454;-79
2021/08/23 03:20:06;;;;;;;1999.90;999.90;;;16.20;99.90;;;;;;4954134;29;20439;-79
2021/08/23 03:22:40;;;;;;;1999.90;999.90;;;16.20;99.90;;;;;;4953921;28;20411;-79
2021/08/23 03:25:22;;;;;;;1999.90;999.90;;;16.10;99.90;;;;;;4973412;28;20415;-80
2021/08/23 03:27:47;;;;;;;1999.90;999.90;;;16.20;99.90;;;;;;5054048;28;20422;-80
2021/08/23 03:30:16;;;;;;;1999.90;999.90;;;16.20;99.90;;;;;;5053855;28;20421;-79
2021/08/23 03:32:44;;;;;;;1999.90;999.90;;;16.20;99.90;;;;;;5053907;28;20188;-79
2021/08/23 03:35:13;;;;;;;1999.90;999.90;;;16.20;99.90;;;;;;5053596;28;20433;-79
2021/08/23 03:37:46;;;;;;;1999.90;999.90;;;16.30;99.90;;;;;;5053812;28;20446;-79
2021/08/23 03:41:41;;;;;;;1999.90;999.90;;;16.20;99.90;;;;;;5053917;28;20758;-79
2021/08/23 03:43:48;;;;;;;1999.90;999.90;;;16.20;99.90;;;;;;5037513;28;20402;-79
2021/08/23 03:46:45;;;;;;;1999.90;999.90;;;16.20;99.90;;;;;;5035620;28;20406;-79
2021/08/23 03:49:34;;;;;;;1999.90;999.90;;;16.20;99.90;;;;;;5053923;28;20406;-80
2021/08/23 03:52:13;;;;;;;1999.90;999.90;;;16.20;99.90;;;;;;5053246;28;20447;-79
2021/08/23 03:55:02;;;;;;;1999.90;999.90;;;16.30;99.90;;;;;;5035808;28;20417;-80
2021/08/23 03:57:32;;;;;;;1999.90;999.90;;;16.30;99.90;;;;;;5053559;28;20506;-79
2021/08/23 04:00:09;;;;;;;1999.90;999.90;;;16.30;99.90;;;;;;5053445;28;20390;-79
2021/08/23 04:03:03;;;;;;;1999.90;999.90;;;16.40;99.90;;;;;;5053729;28;20441;-79
2021/08/23 04:05:32;;;;;;;1999.90;999.90;;;16.40;99.90;;;;;;5054638;28;20456;-79
2021/08/23 04:08:08;;;;;;;1999.90;999.90;;;16.50;99.90;;;;;;5054133;28;20480;-79
2021/08/23 04:10:48;;;;;;;1999.90;999.90;;;16.50;99.90;;;;;;5036223;28;20421;-79
2021/08/23 04:13:16;;;;;;;1999.90;999.90;;;16.50;99.90;;;;;;5035932;28;20502;-80
2021/08/23 04:15:52;;;;;;;1999.90;999.90;;;16.40;99.90;;;;;;5053502;28;20766;-79
2021/08/23 04:18:36;;;;;;;1999.90;999.90;;;16.40;99.90;;;;;;5053281;28;20441;-80
2021/08/23 04:21:05;;;;;;;1999.90;999.90;;;16.50;99.90;;;;;;5053620;28;20397;-79
2021/08/23 04:23:40;;;;;;;1999.90;999.90;;;16.50;99.90;;;;;;5036385;28;20422;-80
2021/08/23 04:26:08;;;;;;;1999.90;999.90;;;16.50;99.90;;;;;;5039333;28;20414;-80
2021/08/23 04:28:45;;;;;;;1999.90;999.90;;;16.50;99.90;;;;;;5039163;28;20968;-79
2021/08/23 04:31:28;;;;;;;1999.90;999.90;;;16.60;99.90;;;;;;5057091;28;20465;-79
2021/08/23 04:34:22;;;;;;;1999.90;999.90;;;16.60;99.90;;;;;;5057394;28;20395;-79
2021/08/23 04:37:03;;;;;;;1999.90;999.90;;;16.60;99.90;;;;;;5027730;28;20497;-79
2021/08/23 04:39:52;;;;;;;1999.90;999.90;;;16.50;99.90;;;;;;5039054;28;20411;-79
2021/08/23 04:42:17;;;;;;;1999.90;999.90;;;16.50;99.90;;;;;;5041322;28;20427;-79
2021/08/23 04:44:51;;;;;;;1999.90;999.90;;;16.50;99.90;;;;;;5057213;28;20904;-79
2021/08/23 04:47:32;;;;;;;1999.90;999.90;;;16.50;99.90;;;;;;5056944;28;20202;-79
2021/08/23 04:50:34;;;;;;;1999.90;999.90;;;16.50;99.90;;;;;;5054406;28;20422;-80
2021/08/23 04:53:16;;;;;;;1999.90;999.90;;;16.60;99.90;;;;;;5056981;28;20443;-79
2021/08/23 04:56:01;;;;;;;1999.90;999.90;;;16.70;99.90;;;;;;5039434;28;20407;-79
2021/08/23 04:59:05;;;;;;;1999.90;999.90;;;16.70;99.90;;;;;;5038091;28;20512;-79
2021/08/23 05:01:54;;;;;;;1999.90;999.90;;;16.70;99.90;;;;;;5038118;28;20403;-79
2021/08/23 05:04:29;;;;;;;1999.90;999.90;;;16.70;99.90;;;;;;5056568;28;20378;-79
2021/08/23 05:07:21;;;;;;;1999.90;999.90;;;16.70;99.90;;;;;;5056387;28;20888;-79
2021/08/23 05:10:06;;;;;;;1999.90;999.90;;;16.80;99.90;;;;;;5056081;28;20400;-80
2021/08/23 05:12:32;;;;;;;1999.90;999.90;;;16.80;99.90;;;;;;5056550;28;20925;-79
2021/08/23 05:15:04;;;;;;;1999.90;999.90;;;16.80;99.90;;;;;;5038223;28;20437;-79
2021/08/23 05:17:35;;;;;;;1999.90;999.90;;;16.80;99.90;;;;;;5038324;28;20199;-80
2021/08/23 05:20:10;;;;;;;1999.90;999.90;;;16.80;99.90;;;;;;5056364;28;20445;-79
2021/08/23 05:22:47;;;;;;;1999.90;999.90;;;16.80;99.90;;;;;;5056218;28;20751;-79
2021/08/23 05:25:19;;;;;;;1999.90;999.90;;;16.80;99.90;;;;;;5056626;28;20394;-80
2021/08/23 05:27:45;;;;;;;1999.90;999.90;;;16.80;99.90;;;;;;5056262;28;20419;-81
2021/08/23 05:30:14;;;;;;;1999.90;999.90;;;16.80;99.90;;;;;;5056190;28;20406;-79
2021/08/23 05:32:40;;;;;;;1999.90;999.90;;;16.90;99.90;;;;;;5055476;28;20443;-79
2021/08/23 05:35:44;;;;;;;1999.90;999.90;;;17.00;99.90;;;;;;5055602;28;20811;-79
2021/08/23 05:38:37;;;;;;;1999.90;999.90;;;17.00;99.90;;;;;;5056061;28;20559;-79
2021/08/23 05:41:12;;;;;;;1999.90;999.90;;;17.00;99.90;;;;;;5056514;28;20905;-80
2021/08/23 05:43:59;;;;;;;1999.90;999.90;;;17.00;99.90;;;;;;5056626;28;20422;-79
2021/08/23 05:49:42;;;;;;;1999.90;999.90;;;17.10;99.90;;;;;;5050983;28;20410;-79
2021/08/23 05:52:18;;;;;;;1999.90;999.90;;;17.20;99.90;;;;;;5056137;28;20443;-79
2021/08/23 05:56:01;;;;;;;1999.90;999.90;;;17.20;99.90;;;;;;5056549;28;20383;-79
2021/08/23 05:59:02;;;;;;;1999.90;999.90;;;17.40;99.90;;;;;;5062068;22;20479;-88
2021/08/23 06:01:05;;;;;;;1999.90;999.90;;;17.40;99.90;;;;;;5041164;28;20415;-87
2021/08/23 06:03:50;;;;;;;1999.90;999.90;;;17.40;99.90;;;;;;5037093;28;20423;-86
2021/08/23 06:06:36;;;;;;;1999.90;999.90;;;17.50;99.90;;;;;;5054643;28;20407;-86
2021/08/23 06:09:32;;;;;;;1999.90;999.90;;;17.60;99.90;;;;;;5034906;28;20398;-86
2021/08/23 06:12:00;;;;;;;1999.90;999.90;;;17.60;99.90;;;;;;5034572;28;20443;-86
2021/08/23 06:14:32;;;;;;;1999.90;999.90;;;17.70;99.90;;;;;;5017287;28;20450;-86
2021/08/23 06:17:02;;;;;;;1999.90;999.90;;;17.70;99.90;;;;;;5034238;28;20420;-86
2021/08/23 06:19:31;;;;;;;1999.90;999.90;;;17.80;99.90;;;;;;5034801;28;20392;-86
2021/08/23 06:22:02;;;;;;;1999.90;999.90;;;17.80;99.90;;;;;;5034596;28;20479;-86
2021/08/23 06:24:31;;;;;;;1999.90;999.90;;;17.90;99.90;;;;;;5034823;28;20872;-86
2021/08/23 06:27:07;;;;;;;1999.90;999.90;;;17.80;99.90;;;;;;5016776;28;21146;-86
2021/08/23 06:29:44;;;;;;;1999.90;999.90;;;17.90;99.90;;;;;;5034723;28;20391;-86
2021/08/23 06:32:13;;;;;;;1999.90;999.90;;;17.90;99.90;;;;;;5034253;28;20955;-86
2021/08/23 06:35:17;;;;;;;1999.90;999.90;;;18.00;99.90;;;;;;5034151;28;20411;-86
2021/08/23 06:38:05;;;;;;;1999.90;999.90;;;18.00;99.90;;;;;;5031576;28;20486;-86
2021/08/23 06:40:36;;;;;;;1999.90;999.90;;;18.10;99.90;;;;;;5034438;28;20391;-86
2021/08/23 06:43:06;;;;;;;1999.90;999.90;;;18.10;99.90;;;;;;5016458;28;20408;-86
2021/08/23 06:46:05;;;;;;;1999.90;999.90;;;18.20;99.90;;;;;;5034060;28;20745;-86
2021/08/23 06:48:34;;;;;;;1999.90;999.90;;;18.20;99.90;;;;;;5033749;28;20527;-86
2021/08/23 06:51:19;;;;;;;1999.90;999.90;;;18.30;99.90;;;;;;5033881;28;20412;-86
2021/08/23 06:53:53;;;;;;;1999.90;999.90;;;18.40;99.90;;;;;;5017325;28;20733;-87
2021/08/23 06:56:20;;;;;;;1999.90;999.90;;;18.40;99.90;;;;;;5016402;28;20412;-87
2021/08/23 07:02:08;;;;;;;;;;;;;;;;;;;;;
2021/08/23 07:04:49;;;;;;;1999.90;999.90;;;18.50;99.90;;;;;;5034060;28;20404;-87
2021/08/23 07:07:24;;;;;;;1999.90;999.90;;;18.40;99.90;;;;;;5033730;28;20419;-87
2021/08/23 07:09:58;;;;;;;1999.90;999.90;;;18.40;99.90;;;;;;5033473;28;20903;-87
2021/08/23 07:12:49;;;;;;;1999.90;999.90;;;18.50;99.90;;;;;;5015204;28;20466;-86
2021/08/23 07:15:37;;;;;;;1999.90;999.90;;;18.50;99.90;;;;;;5015679;28;20451;-87
2021/08/23 07:18:03;;;;;;;1999.90;999.90;;;18.50;99.90;;;;;;5033698;28;20416;-86
2021/08/23 07:20:53;;;;;;;1999.90;999.90;;;18.60;99.90;;;;;;5015524;28;20507;-86
2021/08/23 07:26:24;;;;;;;1999.90;999.90;;;18.70;99.90;;;;;;5033623;28;20748;-87
2021/08/23 07:29:00;;;;;;;1999.90;999.90;;;18.60;99.90;;;;;;5015481;28;20887;-87
2021/08/23 07:31:59;;;;;;;1999.90;999.90;;;18.60;99.90;;;;;;5014102;28;20412;-86
2021/08/23 07:34:18;;;;;;;1999.90;999.90;;;18.70;99.90;;;;;;5030781;28;20915;-86
2021/08/23 07:37:05;;;;;;;1999.90;999.90;;;18.70;99.90;;;;;;5015473;28;20865;-86
2021/08/23 07:39:40;;;;;;;1999.90;999.90;;;18.80;99.90;;;;;;5033286;28;20431;-86
2021/08/23 07:42:25;;;;;;;1999.90;999.90;;;18.80;99.90;;;;;;5033539;28;20392;-86
2021/08/23 07:45:22;;;;;;;1999.90;999.90;;;18.90;99.90;;;;;;5032766;28;20408;-87
2021/08/23 07:48:00;;;;;;;1999.90;999.90;;;18.90;99.90;;;;;;5033134;28;20427;-86
2021/08/23 07:51:00;;;;;;;1999.90;999.90;;;18.90;99.90;;;;;;5033419;28;20396;-86
2021/08/23 07:53:49;;;;;;;1999.90;999.90;;;18.90;99.90;;;;;;5013809;28;20443;-86
2021/08/23 07:56:24;;;;;;;1999.90;999.90;;;19.00;99.90;;;;;;5021629;28;20412;-86
2021/08/23 07:59:22;;;;;;;1999.90;999.90;;;19.00;99.90;;;;;;5036097;28;20415;-86
2021/08/23 08:05:29;;;;;;;1999.90;999.90;;;19.10;99.90;;;;;;5028486;28;20434;-86
2021/08/23 08:13:09;;;;;;;1999.90;999.90;;;19.50;99.90;;;;;;4140958;22;20552;-86
2021/08/23 08:16:01;;;;;;;1999.90;999.90;;;19.60;99.90;;;;;;5041448;28;20791;-86
2021/08/23 08:18:56;;;;;;;1999.90;999.90;;;19.60;99.90;;;;;;5059227;28;20418;-86
2021/08/23 08:21:28;;;;;;;1999.90;999.90;;;19.60;99.90;;;;;;5039330;28;20395;-86
2021/08/23 08:24:08;;;;;;;1999.90;999.90;;;19.50;99.90;;;;;;5059559;28;20445;-86
2021/08/23 08:27:16;;;;;;;1999.90;999.90;;;19.50;99.90;;;;;;5059165;28;20419;-86
2021/08/23 08:30:14;;;;;;;1999.90;999.90;;;19.50;99.90;;;;;;5048491;28;20809;-86
2021/08/23 08:36:42;;;;;;;1999.90;999.90;;;19.70;99.90;;;;;;5011916;28;20785;-86
2021/08/23 08:39:17;;;;;;;1999.90;999.90;;;19.90;99.90;;;;;;5018022;28;20392;-86
2021/08/23 08:42:17;;;;;;;1999.90;999.90;;;20.00;99.90;;;;;;5017968;28;20409;-86
2021/08/23 08:45:26;;;;;;;1999.90;999.90;;;20.10;99.90;;;;;;5000575;28;20427;-86
2021/08/23 08:48:15;;;;;;;1999.90;999.90;;;20.10;99.90;;;;;;4985045;28;21034;-85
2021/08/23 08:51:25;;;;;;;1999.90;999.90;;;20.20;99.90;;;;;;5017545;28;20383;-85
2021/08/23 08:54:11;;;;;;;1999.90;999.90;;;20.10;99.90;;;;;;5016841;28;20809;-86
2021/08/23 08:57:05;;;;;;;1999.90;999.90;;;20.10;99.90;;;;;;5017285;28;20499;-86
2021/08/23 09:00:05;;;;;;;1999.90;999.90;;;20.00;99.90;;;;;;5007859;28;20464;-86
2021/08/23 09:03:28;;;;;;;;;;;;;;;;;;;;;
2021/08/23 09:06:11;;;;;;;1999.90;999.90;;;20.00;99.90;;;;;;5058912;28;20407;-86
2021/08/23 09:09:52;;;;;;;1999.90;999.90;;;20.00;99.90;;;;;;5058823;28;20922;-86
2021/08/23 09:12:26;;;;;;;1999.90;999.90;;;20.00;99.90;;;;;;5044099;28;20459;-86
2021/08/23 09:15:24;;;;;;;1999.90;999.90;;;20.10;99.90;;;;;;5042595;28;20423;-86
2021/08/23 09:22:02;;;;;;;1999.90;999.90;;;20.40;99.90;;;;;;5056558;28;20384;-86
2021/08/23 09:31:14;;;;;;;1999.90;999.90;;;20.40;99.90;;;;;;5045070;28;20439;-86
2021/08/23 09:34:28;;;;;;;;;;;;;;;;;;;;;
2021/08/23 09:37:38;;;;;;;;;;;;;;;;;;;;;
2021/08/23 09:44:21;;;;;;;1999.90;999.90;;;19.90;99.90;;;;;;4955090;29;20399;-86
2021/08/23 09:50:50;;;;;;;1999.90;999.90;;;20.10;99.90;;;;;;4944799;29;20418;-86
2021/08/23 10:01:02;;;;;;;1999.90;999.90;;;20.40;99.90;;;;;;4880932;29;20585;-86
2021/08/23 10:03:41;;;;;;;1999.90;999.90;;;20.40;99.90;;;;;;4869850;29;20434;-85
2021/08/23 10:06:06;;;;;;;1999.90;999.90;;;20.20;99.90;;;;;;4965665;28;20424;-83
2021/08/23 10:08:32;;;;;;;1999.90;999.90;;;20.10;99.90;;;;;;5071074;28;20518;-83
2021/08/23 10:10:58;;;;;;;1999.90;999.90;;;20.00;99.90;;;;;;5054281;28;20169;-82
2021/08/23 10:13:27;;;;;;;1999.90;999.90;;;19.80;99.90;;;;;;5071978;28;20473;-82
2021/08/23 10:15:53;;;;;;;1999.90;999.90;;;19.80;99.90;;;;;;5068482;28;20193;-82
2021/08/23 10:18:24;;;;;;;1999.90;999.90;;;19.80;99.90;;;;;;5067312;28;20448;-82
2021/08/23 10:20:49;;;;;;;1999.90;999.90;;;19.90;99.90;;;;;;5051230;28;20164;-83
2021/08/23 10:23:16;;;;;;;1999.90;999.90;;;19.90;99.90;;;;;;5050668;28;20922;-83
2021/08/23 10:25:44;;;;;;;1999.90;999.90;;;20.10;99.90;;;;;;5049904;28;20254;-83
2021/08/23 10:28:16;;;;;;;1999.90;999.90;;;20.40;99.90;;;;;;5045418;28;20440;-83
2021/08/23 10:30:42;;;;;;;1999.90;999.90;;;20.60;99.90;;;;;;5068591;28;20410;-83
2021/08/23 10:33:12;;;;;;;1999.90;999.90;;;20.50;99.90;;;;;;5066595;28;20587;-83
2021/08/23 10:35:52;;;;;;;1999.90;999.90;;;20.50;99.90;;;;;;5048498;28;20408;-83
2021/08/23 10:38:23;;;;;;;1999.90;999.90;;;20.60;99.90;;;;;;5048584;28;20427;-83
2021/08/23 10:41:05;;;;;;;1999.90;999.90;;;20.70;99.90;;;;;;5049108;28;20421;-84
2021/08/23 10:43:43;;;;;;;1999.90;999.90;;;20.90;99.90;;;;;;5063524;28;20505;-84
2021/08/23 10:46:23;;;;;;;1999.90;999.90;;;21.20;99.90;;;;;;5065374;28;20395;-85
2021/08/23 10:48:51;;;;;;;1999.90;999.90;;;21.20;99.90;;;;;;5047477;28;20425;-85
2021/08/23 10:51:33;;;;;;;1999.90;999.90;;;21.30;99.90;;;;;;5041058;28;20411;-85
2021/08/23 10:54:00;;;;;;;1999.90;999.90;;;21.40;99.90;;;;;;5064718;28;20391;-84
2021/08/23 10:56:46;;;;;;;1999.90;999.90;;;21.50;99.90;;;;;;5048289;28;20511;-85
2021/08/23 10:59:17;;;;;;;1999.90;999.90;;;21.70;99.90;;;;;;5045456;28;20429;-85
2021/08/23 11:02:07;;;;;;;1999.90;999.90;;;21.70;99.90;;;;;;5063137;28;20403;-86
2021/08/23 11:05:09;;;;;;;1999.90;999.90;;;21.70;99.90;;;;;;5062312;28;20386;-86
2021/08/23 11:07:58;;;;;;;1999.90;999.90;;;21.60;99.90;;;;;;5047961;22;20564;-85
2021/08/23 11:10:44;;;;;;;1999.90;999.90;;;21.70;99.90;;;;;;5077128;28;20456;-85
2021/08/23 11:13:47;;;;;;;1999.90;999.90;;;21.70;99.90;;;;;;5043249;28;20484;-86
2021/08/23 11:17:00;;;;;;;1999.90;999.90;;;22.00;99.90;;;;;;5057520;28;20770;-85
2021/08/23 11:23:17;;;;;;;1999.90;999.90;;;21.80;99.90;;;;;;5037976;28;20892;-86
2021/08/23 11:31:35;;;;;;;1999.90;999.90;;;21.00;99.90;;;;;;5053146;28;20509;-85
2021/08/23 11:35:03;;;;;;;;;;;;;;;;;;;;;
2021/08/23 11:38:02;;;;;;;1999.90;999.90;;;21.00;99.90;;;;;;5005637;28;20438;-85
2021/08/23 11:44:28;;;;;;;;;;;;;;;;;;;;;
2021/08/23 11:53:24;;;;;;;1999.90;999.90;;;21.30;99.90;;;;;;5071866;22;20485;-86
2021/08/23 11:56:22;;;;;;;1999.90;999.90;;;21.10;99.90;;;;;;4952697;29;20415;-85
2021/08/23 11:58:48;;;;;;;1999.90;999.90;;;21.10;99.90;;;;;;5103643;22;20486;-78
2021/08/23 12:01:17;;;;;;;1999.90;999.90;;;21.10;99.90;;;;;;5054091;28;20390;-79
2021/08/23 12:03:43;;;;;;;1999.90;999.90;;;21.20;99.90;;;;;;5053912;28;20168;-80
2021/08/23 12:06:16;;;;;;;1999.90;999.90;;;21.30;99.90;;;;;;5036211;28;20405;-79
2021/08/23 12:08:42;;;;;;;1999.90;999.90;;;21.40;99.90;;;;;;5054264;28;20496;-78
2021/08/23 12:11:12;;;;;;;1999.90;999.90;;;21.50;99.90;;;;;;5054088;28;20391;-79
2021/08/23 12:13:46;;;;;;;1999.90;999.90;;;21.60;99.90;;;;;;5054301;28;20181;-79
2021/08/23 12:16:17;;;;;;;1999.90;999.90;;;21.70;99.90;;;;;;5054541;28;20719;-79
2021/08/23 12:18:47;;;;;;;1999.90;999.90;;;21.70;99.90;;;;;;5054850;28;20755;-79
2021/08/23 12:21:15;;;;;;;1999.90;999.90;;;21.80;99.90;;;;;;5054082;28;20395;-79
2021/08/23 12:23:47;;;;;;;1999.90;999.90;;;22.10;99.90;;;;;;5036461;28;20763;-79
2021/08/23 12:26:15;;;;;;;1999.90;999.90;;;22.20;99.90;;;;;;5054367;28;20399;-79
2021/08/23 12:28:51;;;;;;;1999.90;999.90;;;22.20;99.90;;;;;;5054163;28;20826;-79
2021/08/23 12:31:18;;;;;;;1999.90;999.90;;;22.30;99.90;;;;;;5054174;28;20399;-80
2021/08/23 12:33:45;;;;;;;1999.90;999.90;;;22.20;99.90;;;;;;5036589;28;20888;-79
2021/08/23 12:36:11;;;;;;;1999.90;999.90;;;22.10;99.90;;;;;;5036379;28;20949;-79
2021/08/23 12:38:42;;;;;;;1999.90;999.90;;;22.10;99.90;;;;;;5054061;28;20423;-80
2021/08/23 12:41:08;;;;;;;1999.90;999.90;;;22.10;99.90;;;;;;5054188;28;20411;-79
2021/08/23 12:43:38;;;;;;;1999.90;999.90;;;22.10;99.90;;;;;;5053978;28;20511;-79
2021/08/23 12:46:04;;;;;;;1999.90;999.90;;;22.30;99.90;;;;;;5057629;28;20893;-80
2021/08/23 12:48:31;;;;;;;1999.90;999.90;;;22.40;99.90;;;;;;5057490;28;20461;-79
2021/08/23 12:51:01;;;;;;;1999.90;999.90;;;22.30;99.90;;;;;;5057988;28;20537;-80
2021/08/23 12:53:30;;;;;;;1999.90;999.90;;;22.10;99.90;;;;;;5058391;28;20439;-79
2021/08/23 12:55:56;;;;;;;1999.90;999.90;;;22.10;99.90;;;;;;5057688;28;20442;-79
2021/08/23 12:58:21;;;;;;;1999.90;999.90;;;22.20;99.90;;;;;;5057487;28;20849;-79
2021/08/23 13:00:52;;;;;;;1999.90;999.90;;;22.20;99.90;;;;;;5039856;28;20506;-79
2021/08/23 13:03:20;;;;;;;1999.90;999.90;;;22.30;99.90;;;;;;5057637;28;20149;-80
2021/08/23 13:05:46;;;;;;;1999.90;999.90;;;22.40;99.90;;;;;;5057197;28;20399;-80
2021/08/23 13:08:14;;;;;;;1999.90;999.90;;;22.40;99.90;;;;;;5039281;28;20441;-79
2021/08/23 13:10:44;;;;;;;1999.90;999.90;;;22.50;99.90;;;;;;5039522;28;20165;-79
2021/08/23 13:13:14;;;;;;;1999.90;999.90;;;22.60;99.90;;;;;;5057118;28;20445;-79
2021/08/23 13:15:41;;;;;;;1999.90;999.90;;;22.60;99.90;;;;;;5040143;28;20770;-79
2021/08/23 13:18:07;;;;;;;1999.90;999.90;;;22.70;99.90;;;;;;5057480;28;20431;-80
2021/08/23 13:20:35;;;;;;;1999.90;999.90;;;22.80;99.90;;;;;;5057078;28;20403;-80
2021/08/23 13:23:01;;;;;;;1999.90;999.90;;;22.90;99.90;;;;;;5057371;28;20392;-79
2021/08/23 13:25:30;;;;;;;1999.90;999.90;;;23.00;99.90;;;;;;5056985;28;20406;-79
2021/08/23 13:27:55;;;;;;;1999.90;999.90;;;22.80;99.90;;;;;;5039313;28;20192;-79
2021/08/23 13:30:21;;;;;;;1999.90;999.90;;;22.70;99.90;;;;;;5057546;28;20396;-80
2021/08/23 13:32:46;;;;;;;1999.90;999.90;;;22.60;99.90;;;;;;5039250;28;20219;-80
2021/08/23 13:35:12;;;;;;;1999.90;999.90;;;22.50;99.90;;;;;;5057259;28;20173;-79
2021/08/23 13:37:38;;;;;;;1999.90;999.90;;;22.60;99.90;;;;;;5056990;28;20667;-79
2021/08/23 13:40:06;;;;;;;1999.90;999.90;;;22.70;99.90;;;;;;5057180;28;20161;-79
2021/08/23 13:42:32;;;;;;;1999.90;999.90;;;22.60;99.90;;;;;;5056791;28;20261;-80
2021/08/23 13:44:58;;;;;;;1999.90;999.90;;;22.70;99.90;;;;;;5039539;28;20442;-79
2021/08/23 13:47:23;;;;;;;1999.90;999.90;;;22.80;99.90;;;;;;5040013;28;20196;-79
2021/08/23 13:49:52;;;;;;;1999.90;999.90;;;22.80;99.90;;;;;;5040351;28;20169;-79
2021/08/23 13:52:18;;;;;;;1999.90;999.90;;;22.90;99.90;;;;;;5057572;28;20656;-79
2021/08/23 13:54:43;;;;;;;1999.90;999.90;;;23.00;99.90;;;;;;5039424;28;20426;-79
2021/08/23 13:57:09;;;;;;;1999.90;999.90;;;22.90;99.90;;;;;;5056169;28;20185;-79
2021/08/23 13:59:40;;;;;;;1999.90;999.90;;;22.90;99.90;;;;;;5057424;28;20512;-79
2021/08/23 14:02:12;;;;;;;1999.90;999.90;;;22.90;99.90;;;;;;5039324;28;20172;-79
2021/08/23 14:04:38;;;;;;;1999.90;999.90;;;22.70;99.90;;;;;;5058426;28;20905;-79
2021/08/23 14:07:04;;;;;;;1999.90;999.90;;;22.70;99.90;;;;;;5057352;28;20423;-79
2021/08/23 14:09:30;;;;;;;1999.90;999.90;;;22.60;99.90;;;;;;5057227;28;20473;-79
2021/08/23 14:11:56;;;;;;;1999.90;999.90;;;22.50;99.90;;;;;;5056355;28;20789;-79
2021/08/23 14:14:24;;;;;;;1999.90;999.90;;;22.40;99.90;;;;;;5038153;28;20164;-81
2021/08/23 14:16:51;;;;;;;1999.90;999.90;;;22.30;99.90;;;;;;5037944;28;20238;-79
2021/08/23 14:19:16;;;;;;;1999.90;999.90;;;22.30;99.90;;;;;;5038287;28;20403;-80
2021/08/23 14:21:42;;;;;;;1999.90;999.90;;;22.30;99.90;;;;;;5038121;28;20453;-78
2021/08/23 14:24:08;;;;;;;1999.90;999.90;;;22.20;99.90;;;;;;5037897;28;20215;-79
2021/08/23 14:26:34;;;;;;;1999.90;999.90;;;22.20;99.90;;;;;;5055939;28;20416;-80
2021/08/23 14:29:01;;;;;;;1999.90;999.90;;;22.20;99.90;;;;;;5055623;28;20171;-79